sensor_id;sensor_type;location;lat;lon;timestamp;temperature;humidity
9666;DHT22;4871;52.004;5.924;2023-06-10T00:00:00;23.1;43.5
9666;DHT22;4871;52.004;5.924;2023-06-10T00:01:02;23.1;43.4
9666;DHT22;4871;52.004;5.924;2023-06-10T00:02:00;23.1;43.6
9666;DHT22;4871;52.004;5.924;2023-06-10T00:03:01;23.0;43.5
9666;DHT22;4871;52.004;5.924;2023-06-10T00:04:00;23.0;43.6
9666;DHT22;4871;52.004;5.924;2023-06-10T00:05:01;23.0;43.5
9666;DHT22;4871;52.004;5.924;2023-06-10T00:06:00;22.9;43.8
9666;DHT22;4871;52.004;5.924;2023-06-10T00:07:01;22.9;44.1
9666;DHT22;4871;52.004;5.924;2023-06-10T00:08:01;22.9;43.7
9666;DHT22;4871;52.004;5.924;2023-06-10T00:09:02;22.9;43.7
9666;DHT22;4871;52.004;5.924;2023-06-10T00:10:05;22.9;43.8
9666;DHT22;4871;52.004;5.924;2023-06-10T00:11:00;22.8;44.0
9666;DHT22;4871;52.004;5.924;2023-06-10T00:12:02;22.9;43.7
9666;DHT22;4871;52.004;5.924;2023-06-10T00:13:01;22.9;43.9
9666;DHT22;4871;52.004;5.924;2023-06-10T00:14:01;22.9;44.0
9666;DHT22;4871;52.004;5.924;2023-06-10T00:15:00;22.8;43.9
9666;DHT22;4871;52.004;5.924;2023-06-10T00:16:01;22.8;43.9
9666;DHT22;4871;52.004;5.924;2023-06-10T00:17:00;22.8;44.0
9666;DHT22;4871;52.004;5.924;2023-06-10T00:18:03;22.8;43.9
9666;DHT22;4871;52.004;5.924;2023-06-10T00:19:01;22.8;43.9
9666;DHT22;4871;52.004;5.924;2023-06-10T00:20:09;22.7;43.9
9666;DHT22;4871;52.004;5.924;2023-06-10T00:21:04;22.7;44.0
9666;DHT22;4871;52.004;5.924;2023-06-10T00:22:00;22.7;43.9
9666;DHT22;4871;52.004;5.924;2023-06-10T00:23:02;22.7;44.1
9666;DHT22;4871;52.004;5.924;2023-06-10T00:24:03;22.7;43.8
9666;DHT22;4871;52.004;5.924;2023-06-10T00:25:00;22.7;44.0
9666;DHT22;4871;52.004;5.924;2023-06-10T00:26:02;22.7;43.9
9666;DHT22;4871;52.004;5.924;2023-06-10T00:27:00;22.6;44.1
9666;DHT22;4871;52.004;5.924;2023-06-10T00:28:02;22.6;44.0
9666;DHT22;4871;52.004;5.924;2023-06-10T00:29:00;22.6;44.0
9666;DHT22;4871;52.004;5.924;2023-06-10T00:30:06;22.6;44.0
9666;DHT22;4871;52.004;5.924;2023-06-10T00:31:00;22.6;44.0
9666;DHT22;4871;52.004;5.924;2023-06-10T00:32:00;22.6;44.0
9666;DHT22;4871;52.004;5.924;2023-06-10T00:33:02;22.5;44.3
9666;DHT22;4871;52.004;5.924;2023-06-10T00:34:00;22.6;43.9
9666;DHT22;4871;52.004;5.924;2023-06-10T00:35:04;22.5;43.9
9666;DHT22;4871;52.004;5.924;2023-06-10T00:36:00;22.5;44.0
9666;DHT22;4871;52.004;5.924;2023-06-10T00:37:00;22.5;44.1
9666;DHT22;4871;52.004;5.924;2023-06-10T00:38:03;22.4;44.2
9666;DHT22;4871;52.004;5.924;2023-06-10T00:39:00;22.4;44.2
9666;DHT22;4871;52.004;5.924;2023-06-10T00:40:00;22.4;44.2
9666;DHT22;4871;52.004;5.924;2023-06-10T00:41:02;22.4;44.1
9666;DHT22;4871;52.004;5.924;2023-06-10T00:42:00;22.4;44.0
9666;DHT22;4871;52.004;5.924;2023-06-10T00:43:02;22.4;43.9
9666;DHT22;4871;52.004;5.924;2023-06-10T00:44:00;22.4;43.9
9666;DHT22;4871;52.004;5.924;2023-06-10T00:45:00;22.4;43.9
9666;DHT22;4871;52.004;5.924;2023-06-10T00:46:02;22.4;44.0
9666;DHT22;4871;52.004;5.924;2023-06-10T00:47:00;22.4;44.1
9666;DHT22;4871;52.004;5.924;2023-06-10T00:48:01;22.4;44.0
9666;DHT22;4871;52.004;5.924;2023-06-10T00:49:00;22.4;43.9
9666;DHT22;4871;52.004;5.924;2023-06-10T00:50:03;22.3;44.1
9666;DHT22;4871;52.004;5.924;2023-06-10T00:51:00;22.3;44.1
9666;DHT22;4871;52.004;5.924;2023-06-10T00:52:01;22.3;44.0
9666;DHT22;4871;52.004;5.924;2023-06-10T00:53:03;22.3;44.1
9666;DHT22;4871;52.004;5.924;2023-06-10T00:54:00;22.3;44.2
9666;DHT22;4871;52.004;5.924;2023-06-10T00:55:04;22.3;44.1
9666;DHT22;4871;52.004;5.924;2023-06-10T00:56:00;22.3;44.0
9666;DHT22;4871;52.004;5.924;2023-06-10T00:57:04;22.3;43.9
9666;DHT22;4871;52.004;5.924;2023-06-10T00:58:01;22.3;44.1
9666;DHT22;4871;52.004;5.924;2023-06-10T00:59:02;22.2;44.2
9666;DHT22;4871;52.004;5.924;2023-06-10T01:00:00;22.2;44.0
9666;DHT22;4871;52.004;5.924;2023-06-10T01:01:04;22.2;43.9
9666;DHT22;4871;52.004;5.924;2023-06-10T01:02:03;22.2;44.3
9666;DHT22;4871;52.004;5.924;2023-06-10T01:03:07;22.2;44.1
9666;DHT22;4871;52.004;5.924;2023-06-10T01:04:00;22.2;44.1
9666;DHT22;4871;52.004;5.924;2023-06-10T01:05:03;22.1;44.3
9666;DHT22;4871;52.004;5.924;2023-06-10T01:06:07;22.1;44.3
9666;DHT22;4871;52.004;5.924;2023-06-10T01:07:09;22.1;44.2
9666;DHT22;4871;52.004;5.924;2023-06-10T01:08:04;22.1;44.1
9666;DHT22;4871;52.004;5.924;2023-06-10T01:09:08;22.1;44.2
9666;DHT22;4871;52.004;5.924;2023-06-10T01:10:02;22.1;44.0
9666;DHT22;4871;52.004;5.924;2023-06-10T01:11:07;22.1;44.1
9666;DHT22;4871;52.004;5.924;2023-06-10T01:12:04;22.1;44.0
9666;DHT22;4871;52.004;5.924;2023-06-10T01:13:05;22.1;44.1
9666;DHT22;4871;52.004;5.924;2023-06-10T01:14:01;22.1;43.9
9666;DHT22;4871;52.004;5.924;2023-06-10T01:15:01;22.1;44.1
9666;DHT22;4871;52.004;5.924;2023-06-10T01:16:02;22.0;44.1
9666;DHT22;4871;52.004;5.924;2023-06-10T01:17:01;22.0;44.3
9666;DHT22;4871;52.004;5.924;2023-06-10T01:18:05;22.0;44.2
9666;DHT22;4871;52.004;5.924;2023-06-10T01:19:00;21.9;44.4
9666;DHT22;4871;52.004;5.924;2023-06-10T01:20:11;21.9;44.3
9666;DHT22;4871;52.004;5.924;2023-06-10T01:21:00;21.9;44.3
9666;DHT22;4871;52.004;5.924;2023-06-10T01:22:02;21.9;44.5
9666;DHT22;4871;52.004;5.924;2023-06-10T01:23:01;21.9;44.4
9666;DHT22;4871;52.004;5.924;2023-06-10T01:24:00;21.9;44.4
9666;DHT22;4871;52.004;5.924;2023-06-10T01:25:04;21.9;44.4
9666;DHT22;4871;52.004;5.924;2023-06-10T01:26:02;21.9;44.4
9666;DHT22;4871;52.004;5.924;2023-06-10T01:27:05;21.8;44.4
9666;DHT22;4871;52.004;5.924;2023-06-10T01:28:04;21.9;44.5
9666;DHT22;4871;52.004;5.924;2023-06-10T01:29:06;21.8;44.5
9666;DHT22;4871;52.004;5.924;2023-06-10T01:30:08;21.8;44.5
9666;DHT22;4871;52.004;5.924;2023-06-10T01:31:07;21.8;44.6
9666;DHT22;4871;52.004;5.924;2023-06-10T01:32:06;21.8;44.7
9666;DHT22;4871;52.004;5.924;2023-06-10T01:33:01;21.8;44.6
9666;DHT22;4871;52.004;5.924;2023-06-10T01:34:01;21.8;44.6
9666;DHT22;4871;52.004;5.924;2023-06-10T01:35:01;21.8;44.5
9666;DHT22;4871;52.004;5.924;2023-06-10T01:36:03;21.8;44.5
9666;DHT22;4871;52.004;5.924;2023-06-10T01:37:01;21.7;44.6
9666;DHT22;4871;52.004;5.924;2023-06-10T01:38:04;21.8;44.4
9666;DHT22;4871;52.004;5.924;2023-06-10T01:39:01;21.7;44.4
9666;DHT22;4871;52.004;5.924;2023-06-10T01:40:02;21.7;44.5
9666;DHT22;4871;52.004;5.924;2023-06-10T01:41:03;21.7;44.6
9666;DHT22;4871;52.004;5.924;2023-06-10T01:42:02;21.7;44.6
9666;DHT22;4871;52.004;5.924;2023-06-10T01:43:04;21.7;44.7
9666;DHT22;4871;52.004;5.924;2023-06-10T01:44:00;21.6;44.7
9666;DHT22;4871;52.004;5.924;2023-06-10T01:45:00;21.7;44.6
9666;DHT22;4871;52.004;5.924;2023-06-10T01:46:03;21.7;44.7
9666;DHT22;4871;52.004;5.924;2023-06-10T01:47:00;21.7;44.6
9666;DHT22;4871;52.004;5.924;2023-06-10T01:48:04;21.6;44.6
9666;DHT22;4871;52.004;5.924;2023-06-10T01:49:00;21.6;44.6
9666;DHT22;4871;52.004;5.924;2023-06-10T01:50:04;21.6;44.5
9666;DHT22;4871;52.004;5.924;2023-06-10T01:51:00;21.6;44.7
9666;DHT22;4871;52.004;5.924;2023-06-10T01:52:00;21.6;44.6
9666;DHT22;4871;52.004;5.924;2023-06-10T01:53:03;21.6;44.6
9666;DHT22;4871;52.004;5.924;2023-06-10T01:54:00;21.6;44.6
9666;DHT22;4871;52.004;5.924;2023-06-10T01:55:05;21.5;44.6
9666;DHT22;4871;52.004;5.924;2023-06-10T01:56:00;21.6;44.7
9666;DHT22;4871;52.004;5.924;2023-06-10T01:57:03;21.5;44.5
9666;DHT22;4871;52.004;5.924;2023-06-10T01:58:00;21.5;44.7
9666;DHT22;4871;52.004;5.924;2023-06-10T01:59:03;21.5;44.8
9666;DHT22;4871;52.004;5.924;2023-06-10T02:00:00;21.5;45.0
9666;DHT22;4871;52.004;5.924;2023-06-10T02:01:00;21.5;44.8
9666;DHT22;4871;52.004;5.924;2023-06-10T02:02:03;21.4;44.7
9666;DHT22;4871;52.004;5.924;2023-06-10T02:03:00;21.4;44.8
9666;DHT22;4871;52.004;5.924;2023-06-10T02:04:03;21.4;44.8
9666;DHT22;4871;52.004;5.924;2023-06-10T02:05:00;21.4;44.9
9666;DHT22;4871;52.004;5.924;2023-06-10T02:06:00;21.4;45.2
9666;DHT22;4871;52.004;5.924;2023-06-10T02:07:04;21.4;45.2
9666;DHT22;4871;52.004;5.924;2023-06-10T02:08:00;21.3;45.2
9666;DHT22;4871;52.004;5.924;2023-06-10T02:09:04;21.4;45.3
9666;DHT22;4871;52.004;5.924;2023-06-10T02:10:00;21.3;45.3
9666;DHT22;4871;52.004;5.924;2023-06-10T02:11:03;21.3;45.4
9666;DHT22;4871;52.004;5.924;2023-06-10T02:12:01;21.3;45.2
9666;DHT22;4871;52.004;5.924;2023-06-10T02:13:02;21.3;45.4
9666;DHT22;4871;52.004;5.924;2023-06-10T02:14:00;21.3;45.4
9666;DHT22;4871;52.004;5.924;2023-06-10T02:15:05;21.3;45.4
9666;DHT22;4871;52.004;5.924;2023-06-10T02:16:01;21.3;45.3
9666;DHT22;4871;52.004;5.924;2023-06-10T02:17:00;21.2;45.4
9666;DHT22;4871;52.004;5.924;2023-06-10T02:18:03;21.2;45.5
9666;DHT22;4871;52.004;5.924;2023-06-10T02:19:00;21.2;45.4
9666;DHT22;4871;52.004;5.924;2023-06-10T02:20:07;21.2;45.4
9666;DHT22;4871;52.004;5.924;2023-06-10T02:21:00;21.2;45.4
9666;DHT22;4871;52.004;5.924;2023-06-10T02:22:03;21.2;45.4
9666;DHT22;4871;52.004;5.924;2023-06-10T02:23:00;21.2;45.4
9666;DHT22;4871;52.004;5.924;2023-06-10T02:24:04;21.2;45.6
9666;DHT22;4871;52.004;5.924;2023-06-10T02:25:00;21.2;45.6
9666;DHT22;4871;52.004;5.924;2023-06-10T02:26:04;21.1;45.5
9666;DHT22;4871;52.004;5.924;2023-06-10T02:27:00;21.2;45.5
9666;DHT22;4871;52.004;5.924;2023-06-10T02:28:04;21.1;45.4
9666;DHT22;4871;52.004;5.924;2023-06-10T02:29:00;21.1;45.7
9666;DHT22;4871;52.004;5.924;2023-06-10T02:30:04;21.1;45.6
9666;DHT22;4871;52.004;5.924;2023-06-10T02:31:00;21.1;45.7
9666;DHT22;4871;52.004;5.924;2023-06-10T02:32:01;21.1;45.8
9666;DHT22;4871;52.004;5.924;2023-06-10T02:33:05;21.1;45.6
9666;DHT22;4871;52.004;5.924;2023-06-10T02:34:00;21.1;45.9
9666;DHT22;4871;52.004;5.924;2023-06-10T02:35:05;21.1;45.7
9666;DHT22;4871;52.004;5.924;2023-06-10T02:36:00;21.1;45.8
9666;DHT22;4871;52.004;5.924;2023-06-10T02:37:04;21.0;45.8
9666;DHT22;4871;52.004;5.924;2023-06-10T02:38:00;21.0;45.8
9666;DHT22;4871;52.004;5.924;2023-06-10T02:39:04;21.0;45.9
9666;DHT22;4871;52.004;5.924;2023-06-10T02:40:00;21.0;45.9
9666;DHT22;4871;52.004;5.924;2023-06-10T02:41:03;21.0;45.7
9666;DHT22;4871;52.004;5.924;2023-06-10T02:42:00;21.0;45.8
9666;DHT22;4871;52.004;5.924;2023-06-10T02:43:04;21.0;45.7
9666;DHT22;4871;52.004;5.924;2023-06-10T02:44:00;21.0;45.9
9666;DHT22;4871;52.004;5.924;2023-06-10T02:45:00;21.0;45.7
9666;DHT22;4871;52.004;5.924;2023-06-10T02:46:04;21.0;45.9
9666;DHT22;4871;52.004;5.924;2023-06-10T02:47:00;21.0;45.7
9666;DHT22;4871;52.004;5.924;2023-06-10T02:48:04;21.0;45.6
9666;DHT22;4871;52.004;5.924;2023-06-10T02:49:01;20.9;45.8
9666;DHT22;4871;52.004;5.924;2023-06-10T02:50:04;20.9;45.8
9666;DHT22;4871;52.004;5.924;2023-06-10T02:51:00;20.9;45.8
9666;DHT22;4871;52.004;5.924;2023-06-10T02:52:05;20.9;46.0
9666;DHT22;4871;52.004;5.924;2023-06-10T02:53:00;20.9;45.9
9666;DHT22;4871;52.004;5.924;2023-06-10T02:54:03;20.9;45.8
9666;DHT22;4871;52.004;5.924;2023-06-10T02:55:00;20.8;46.1
9666;DHT22;4871;52.004;5.924;2023-06-10T02:56:03;20.8;46.2
9666;DHT22;4871;52.004;5.924;2023-06-10T02:57:00;20.8;46.2
9666;DHT22;4871;52.004;5.924;2023-06-10T02:58:00;20.8;46.1
9666;DHT22;4871;52.004;5.924;2023-06-10T02:59:04;20.8;46.2
9666;DHT22;4871;52.004;5.924;2023-06-10T03:00:01;20.8;46.3
9666;DHT22;4871;52.004;5.924;2023-06-10T03:01:03;20.8;46.3
9666;DHT22;4871;52.004;5.924;2023-06-10T03:02:01;20.8;46.3
9666;DHT22;4871;52.004;5.924;2023-06-10T03:03:05;20.8;46.2
9666;DHT22;4871;52.004;5.924;2023-06-10T03:04:00;20.8;46.1
9666;DHT22;4871;52.004;5.924;2023-06-10T03:05:02;20.7;46.3
9666;DHT22;4871;52.004;5.924;2023-06-10T03:06:00;20.7;46.3
9666;DHT22;4871;52.004;5.924;2023-06-10T03:07:04;20.7;46.2
9666;DHT22;4871;52.004;5.924;2023-06-10T03:08:00;20.7;46.3
9666;DHT22;4871;52.004;5.924;2023-06-10T03:09:04;20.7;46.3
9666;DHT22;4871;52.004;5.924;2023-06-10T03:10:00;20.7;46.4
9666;DHT22;4871;52.004;5.924;2023-06-10T03:11:04;20.6;46.6
9666;DHT22;4871;52.004;5.924;2023-06-10T03:12:00;20.6;46.6
9666;DHT22;4871;52.004;5.924;2023-06-10T03:13:03;20.6;46.6
9666;DHT22;4871;52.004;5.924;2023-06-10T03:14:00;20.6;46.5
9666;DHT22;4871;52.004;5.924;2023-06-10T03:15:06;20.6;46.6
9666;DHT22;4871;52.004;5.924;2023-06-10T03:16:00;20.6;46.6
9666;DHT22;4871;52.004;5.924;2023-06-10T03:17:00;20.6;46.8
9666;DHT22;4871;52.004;5.924;2023-06-10T03:18:03;20.6;46.5
9666;DHT22;4871;52.004;5.924;2023-06-10T03:19:00;20.6;46.7
9666;DHT22;4871;52.004;5.924;2023-06-10T03:20:06;20.6;46.6
9666;DHT22;4871;52.004;5.924;2023-06-10T03:21:00;20.6;46.7
9666;DHT22;4871;52.004;5.924;2023-06-10T03:22:10;20.6;46.4
9666;DHT22;4871;52.004;5.924;2023-06-10T03:23:00;20.6;46.5
9666;DHT22;4871;52.004;5.924;2023-06-10T03:24:03;20.5;46.5
9666;DHT22;4871;52.004;5.924;2023-06-10T03:25:00;20.5;46.7
9666;DHT22;4871;52.004;5.924;2023-06-10T03:26:04;20.5;46.5
9666;DHT22;4871;52.004;5.924;2023-06-10T03:27:00;20.5;46.5
9666;DHT22;4871;52.004;5.924;2023-06-10T03:28:04;20.5;46.7
9666;DHT22;4871;52.004;5.924;2023-06-10T03:29:00;20.5;46.5
9666;DHT22;4871;52.004;5.924;2023-06-10T03:30:03;20.4;46.8
9666;DHT22;4871;52.004;5.924;2023-06-10T03:31:00;20.4;46.8
9666;DHT22;4871;52.004;5.924;2023-06-10T03:32:04;20.4;46.9
9666;DHT22;4871;52.004;5.924;2023-06-10T03:33:00;20.4;46.6
9666;DHT22;4871;52.004;5.924;2023-06-10T03:34:02;20.3;47.0
9666;DHT22;4871;52.004;5.924;2023-06-10T03:35:00;20.3;47.0
9666;DHT22;4871;52.004;5.924;2023-06-10T03:36:04;20.3;47.1
9666;DHT22;4871;52.004;5.924;2023-06-10T03:37:00;20.3;47.1
9666;DHT22;4871;52.004;5.924;2023-06-10T03:38:03;20.3;47.3
9666;DHT22;4871;52.004;5.924;2023-06-10T03:39:00;20.3;47.1
9666;DHT22;4871;52.004;5.924;2023-06-10T03:40:05;20.3;47.2
9666;DHT22;4871;52.004;5.924;2023-06-10T03:41:00;20.3;47.1
9666;DHT22;4871;52.004;5.924;2023-06-10T03:42:03;20.2;47.0
9666;DHT22;4871;52.004;5.924;2023-06-10T03:43:00;20.2;47.2
9666;DHT22;4871;52.004;5.924;2023-06-10T03:44:04;20.2;47.0
9666;DHT22;4871;52.004;5.924;2023-06-10T03:45:00;20.2;47.4
9666;DHT22;4871;52.004;5.924;2023-06-10T03:46:03;20.2;47.3
9666;DHT22;4871;52.004;5.924;2023-06-10T03:47:00;20.2;46.9
9666;DHT22;4871;52.004;5.924;2023-06-10T03:48:05;20.1;47.3
9666;DHT22;4871;52.004;5.924;2023-06-10T03:49:01;20.2;47.4
9666;DHT22;4871;52.004;5.924;2023-06-10T03:50:00;20.1;47.4
9666;DHT22;4871;52.004;5.924;2023-06-10T03:51:02;20.1;47.6
9666;DHT22;4871;52.004;5.924;2023-06-10T03:52:00;20.1;47.4
9666;DHT22;4871;52.004;5.924;2023-06-10T03:53:03;20.1;47.8
9666;DHT22;4871;52.004;5.924;2023-06-10T03:54:00;20.1;47.5
9666;DHT22;4871;52.004;5.924;2023-06-10T03:55:04;20.1;47.9
9666;DHT22;4871;52.004;5.924;2023-06-10T03:56:00;20.1;47.6
9666;DHT22;4871;52.004;5.924;2023-06-10T03:57:03;20.1;47.7
9666;DHT22;4871;52.004;5.924;2023-06-10T03:58:00;20.0;47.8
9666;DHT22;4871;52.004;5.924;2023-06-10T03:59:03;20.0;47.7
9666;DHT22;4871;52.004;5.924;2023-06-10T04:00:00;20.0;47.6
9666;DHT22;4871;52.004;5.924;2023-06-10T04:01:07;20.0;47.5
9666;DHT22;4871;52.004;5.924;2023-06-10T04:02:00;20.0;47.7
9666;DHT22;4871;52.004;5.924;2023-06-10T04:03:09;20.0;47.8
9666;DHT22;4871;52.004;5.924;2023-06-10T04:04:01;20.0;47.8
9666;DHT22;4871;52.004;5.924;2023-06-10T04:05:05;20.0;47.7
9666;DHT22;4871;52.004;5.924;2023-06-10T04:06:00;20.0;47.8
9666;DHT22;4871;52.004;5.924;2023-06-10T04:07:03;20.0;47.8
9666;DHT22;4871;52.004;5.924;2023-06-10T04:08:01;20.0;47.7
9666;DHT22;4871;52.004;5.924;2023-06-10T04:09:03;20.0;47.9
9666;DHT22;4871;52.004;5.924;2023-06-10T04:10:00;20.0;47.6
9666;DHT22;4871;52.004;5.924;2023-06-10T04:11:00;20.0;47.5
9666;DHT22;4871;52.004;5.924;2023-06-10T04:12:06;20.0;47.6
9666;DHT22;4871;52.004;5.924;2023-06-10T04:13:00;20.0;47.7
9666;DHT22;4871;52.004;5.924;2023-06-10T04:14:00;20.0;48.2
9666;DHT22;4871;52.004;5.924;2023-06-10T04:15:04;20.0;47.7
9666;DHT22;4871;52.004;5.924;2023-06-10T04:16:00;20.0;47.7
9666;DHT22;4871;52.004;5.924;2023-06-10T04:17:06;20.0;47.7
9666;DHT22;4871;52.004;5.924;2023-06-10T04:18:01;20.0;47.9
9666;DHT22;4871;52.004;5.924;2023-06-10T04:19:04;20.0;47.9
9666;DHT22;4871;52.004;5.924;2023-06-10T04:20:00;20.0;47.7
9666;DHT22;4871;52.004;5.924;2023-06-10T04:21:00;20.0;47.8
9666;DHT22;4871;52.004;5.924;2023-06-10T04:22:04;20.0;47.9
9666;DHT22;4871;52.004;5.924;2023-06-10T04:23:01;20.0;48.1
9666;DHT22;4871;52.004;5.924;2023-06-10T04:24:04;20.0;48.0
9666;DHT22;4871;52.004;5.924;2023-06-10T04:25:00;20.0;47.8
9666;DHT22;4871;52.004;5.924;2023-06-10T04:26:05;20.0;47.6
9666;DHT22;4871;52.004;5.924;2023-06-10T04:27:00;20.0;47.5
9666;DHT22;4871;52.004;5.924;2023-06-10T04:28:00;20.0;47.4
9666;DHT22;4871;52.004;5.924;2023-06-10T04:29:03;20.0;48.0
9666;DHT22;4871;52.004;5.924;2023-06-10T04:30:00;20.0;47.7
9666;DHT22;4871;52.004;5.924;2023-06-10T04:31:04;20.0;47.6
9666;DHT22;4871;52.004;5.924;2023-06-10T04:32:02;20.0;47.9
9666;DHT22;4871;52.004;5.924;2023-06-10T04:33:03;20.0;47.9
9666;DHT22;4871;52.004;5.924;2023-06-10T04:34:00;20.0;48.2
9666;DHT22;4871;52.004;5.924;2023-06-10T04:35:05;20.0;48.1
9666;DHT22;4871;52.004;5.924;2023-06-10T04:36:00;20.0;47.8
9666;DHT22;4871;52.004;5.924;2023-06-10T04:37:04;20.1;47.8
9666;DHT22;4871;52.004;5.924;2023-06-10T04:38:02;20.1;47.7
9666;DHT22;4871;52.004;5.924;2023-06-10T04:39:06;20.1;47.2
9666;DHT22;4871;52.004;5.924;2023-06-10T04:40:00;20.1;47.6
9666;DHT22;4871;52.004;5.924;2023-06-10T04:41:03;20.1;47.8
9666;DHT22;4871;52.004;5.924;2023-06-10T04:42:01;20.1;48.0
9666;DHT22;4871;52.004;5.924;2023-06-10T04:43:04;20.1;47.6
9666;DHT22;4871;52.004;5.924;2023-06-10T04:44:00;20.1;47.8
9666;DHT22;4871;52.004;5.924;2023-06-10T04:45:06;20.1;47.4
9666;DHT22;4871;52.004;5.924;2023-06-10T04:46:00;20.1;47.7
9666;DHT22;4871;52.004;5.924;2023-06-10T04:47:07;20.1;47.8
9666;DHT22;4871;52.004;5.924;2023-06-10T04:48:00;20.0;48.0
9666;DHT22;4871;52.004;5.924;2023-06-10T04:49:05;20.1;48.1
9666;DHT22;4871;52.004;5.924;2023-06-10T04:50:00;20.0;47.8
9666;DHT22;4871;52.004;5.924;2023-06-10T04:51:05;20.1;47.8
9666;DHT22;4871;52.004;5.924;2023-06-10T04:52:00;20.1;48.0
9666;DHT22;4871;52.004;5.924;2023-06-10T04:53:03;20.1;47.7
9666;DHT22;4871;52.004;5.924;2023-06-10T04:54:03;20.1;48.0
9666;DHT22;4871;52.004;5.924;2023-06-10T04:55:03;20.1;48.1
9666;DHT22;4871;52.004;5.924;2023-06-10T04:56:00;20.1;47.9
9666;DHT22;4871;52.004;5.924;2023-06-10T04:57:06;20.1;48.0
9666;DHT22;4871;52.004;5.924;2023-06-10T04:58:00;20.1;48.0
9666;DHT22;4871;52.004;5.924;2023-06-10T04:59:00;20.2;48.0
9666;DHT22;4871;52.004;5.924;2023-06-10T05:00:06;20.2;48.2
9666;DHT22;4871;52.004;5.924;2023-06-10T05:01:00;20.2;47.9
9666;DHT22;4871;52.004;5.924;2023-06-10T05:02:00;20.2;47.7
9666;DHT22;4871;52.004;5.924;2023-06-10T05:03:05;20.2;47.8
9666;DHT22;4871;52.004;5.924;2023-06-10T05:04:00;20.2;48.0
9666;DHT22;4871;52.004;5.924;2023-06-10T05:05:04;20.2;47.8
9666;DHT22;4871;52.004;5.924;2023-06-10T05:06:00;20.2;47.8
9666;DHT22;4871;52.004;5.924;2023-06-10T05:07:00;20.3;47.9
9666;DHT22;4871;52.004;5.924;2023-06-10T05:08:05;20.3;47.8
9666;DHT22;4871;52.004;5.924;2023-06-10T05:09:00;20.3;47.8
9666;DHT22;4871;52.004;5.924;2023-06-10T05:10:04;20.3;47.8
9666;DHT22;4871;52.004;5.924;2023-06-10T05:11:00;20.3;47.7
9666;DHT22;4871;52.004;5.924;2023-06-10T05:12:06;20.4;47.7
9666;DHT22;4871;52.004;5.924;2023-06-10T05:13:00;20.4;48.2
9666;DHT22;4871;52.004;5.924;2023-06-10T05:14:05;20.4;47.8
9666;DHT22;4871;52.004;5.924;2023-06-10T05:15:00;20.4;48.3
9666;DHT22;4871;52.004;5.924;2023-06-10T05:16:06;20.4;48.9
9666;DHT22;4871;52.004;5.924;2023-06-10T05:17:00;20.5;48.0
9666;DHT22;4871;52.004;5.924;2023-06-10T05:18:06;20.5;47.9
9666;DHT22;4871;52.004;5.924;2023-06-10T05:19:00;20.6;47.8
9666;DHT22;4871;52.004;5.924;2023-06-10T05:20:05;20.6;47.8
9666;DHT22;4871;52.004;5.924;2023-06-10T05:21:00;20.6;47.7
9666;DHT22;4871;52.004;5.924;2023-06-10T05:22:00;20.7;47.7
9666;DHT22;4871;52.004;5.924;2023-06-10T05:23:06;20.7;47.9
9666;DHT22;4871;52.004;5.924;2023-06-10T05:24:00;20.8;47.4
9666;DHT22;4871;52.004;5.924;2023-06-10T05:25:06;20.8;47.6
9666;DHT22;4871;52.004;5.924;2023-06-10T05:26:00;20.8;47.5
9666;DHT22;4871;52.004;5.924;2023-06-10T05:27:06;20.9;48.1
9666;DHT22;4871;52.004;5.924;2023-06-10T05:28:00;20.9;48.4
9666;DHT22;4871;52.004;5.924;2023-06-10T05:29:05;20.9;48.2
9666;DHT22;4871;52.004;5.924;2023-06-10T05:30:01;20.9;47.8
9666;DHT22;4871;52.004;5.924;2023-06-10T05:31:05;20.9;47.8
9666;DHT22;4871;52.004;5.924;2023-06-10T05:32:03;21.0;47.5
9666;DHT22;4871;52.004;5.924;2023-06-10T05:33:05;21.0;47.9
9666;DHT22;4871;52.004;5.924;2023-06-10T05:34:00;21.1;47.5
9666;DHT22;4871;52.004;5.924;2023-06-10T05:35:06;21.2;47.4
9666;DHT22;4871;52.004;5.924;2023-06-10T05:36:00;21.2;47.2
9666;DHT22;4871;52.004;5.924;2023-06-10T05:37:05;21.3;47.0
9666;DHT22;4871;52.004;5.924;2023-06-10T05:38:00;21.4;46.8
9666;DHT22;4871;52.004;5.924;2023-06-10T05:39:05;21.5;46.9
9666;DHT22;4871;52.004;5.924;2023-06-10T05:40:00;21.5;46.4
9666;DHT22;4871;52.004;5.924;2023-06-10T05:41:00;21.6;46.2
9666;DHT22;4871;52.004;5.924;2023-06-10T05:42:07;21.7;46.4
9666;DHT22;4871;52.004;5.924;2023-06-10T05:43:00;21.7;46.0
9666;DHT22;4871;52.004;5.924;2023-06-10T05:44:06;21.7;46.1
9666;DHT22;4871;52.004;5.924;2023-06-10T05:45:00;21.8;46.1
9666;DHT22;4871;52.004;5.924;2023-06-10T05:46:00;21.8;47.1
9666;DHT22;4871;52.004;5.924;2023-06-10T05:47:06;21.8;46.0
9666;DHT22;4871;52.004;5.924;2023-06-10T05:48:00;22.0;46.2
9666;DHT22;4871;52.004;5.924;2023-06-10T05:49:04;22.0;45.8
9666;DHT22;4871;52.004;5.924;2023-06-10T05:50:00;22.1;46.2
9666;DHT22;4871;52.004;5.924;2023-06-10T05:51:04;22.2;45.5
9666;DHT22;4871;52.004;5.924;2023-06-10T05:52:00;22.2;45.3
9666;DHT22;4871;52.004;5.924;2023-06-10T05:53:00;22.3;45.3
9666;DHT22;4871;52.004;5.924;2023-06-10T05:54:05;22.3;45.4
9666;DHT22;4871;52.004;5.924;2023-06-10T05:55:00;22.4;45.5
9666;DHT22;4871;52.004;5.924;2023-06-10T05:56:06;22.4;45.1
9666;DHT22;4871;52.004;5.924;2023-06-10T05:57:00;22.5;45.3
9666;DHT22;4871;52.004;5.924;2023-06-10T05:58:05;22.6;45.0
9666;DHT22;4871;52.004;5.924;2023-06-10T05:59:00;22.7;45.1
9666;DHT22;4871;52.004;5.924;2023-06-10T06:00:06;22.7;44.7
9666;DHT22;4871;52.004;5.924;2023-06-10T06:01:00;22.8;44.6
9666;DHT22;4871;52.004;5.924;2023-06-10T06:02:06;22.9;44.4
9666;DHT22;4871;52.004;5.924;2023-06-10T06:03:00;23.0;44.0
9666;DHT22;4871;52.004;5.924;2023-06-10T06:04:05;23.0;44.2
9666;DHT22;4871;52.004;5.924;2023-06-10T06:05:00;23.1;44.1
9666;DHT22;4871;52.004;5.924;2023-06-10T06:06:06;23.1;43.8
9666;DHT22;4871;52.004;5.924;2023-06-10T06:07:00;23.2;44.1
9666;DHT22;4871;52.004;5.924;2023-06-10T06:08:06;23.3;44.2
9666;DHT22;4871;52.004;5.924;2023-06-10T06:09:00;23.3;43.6
9666;DHT22;4871;52.004;5.924;2023-06-10T06:10:06;23.4;43.8
9666;DHT22;4871;52.004;5.924;2023-06-10T06:11:00;23.5;43.6
9666;DHT22;4871;52.004;5.924;2023-06-10T06:12:00;23.6;43.6
9666;DHT22;4871;52.004;5.924;2023-06-10T06:13:05;23.6;43.3
9666;DHT22;4871;52.004;5.924;2023-06-10T06:14:00;23.7;43.3
9666;DHT22;4871;52.004;5.924;2023-06-10T06:15:08;23.8;43.5
9666;DHT22;4871;52.004;5.924;2023-06-10T06:16:00;23.9;43.2
9666;DHT22;4871;52.004;5.924;2023-06-10T06:17:05;23.9;43.9
9666;DHT22;4871;52.004;5.924;2023-06-10T06:18:00;24.0;43.0
9666;DHT22;4871;52.004;5.924;2023-06-10T06:19:00;24.0;42.6
9666;DHT22;4871;52.004;5.924;2023-06-10T06:20:07;24.1;42.4
9666;DHT22;4871;52.004;5.924;2023-06-10T06:21:00;24.1;43.4
9666;DHT22;4871;52.004;5.924;2023-06-10T06:22:07;24.2;42.1
9666;DHT22;4871;52.004;5.924;2023-06-10T06:23:00;24.2;43.0
9666;DHT22;4871;52.004;5.924;2023-06-10T06:24:00;24.3;42.6
9666;DHT22;4871;52.004;5.924;2023-06-10T06:25:05;24.4;42.2
9666;DHT22;4871;52.004;5.924;2023-06-10T06:26:00;24.4;42.4
9666;DHT22;4871;52.004;5.924;2023-06-10T06:27:05;24.5;42.2
9666;DHT22;4871;52.004;5.924;2023-06-10T06:28:00;24.5;41.9
9666;DHT22;4871;52.004;5.924;2023-06-10T06:29:06;24.6;41.9
9666;DHT22;4871;52.004;5.924;2023-06-10T06:30:00;24.7;41.8
9666;DHT22;4871;52.004;5.924;2023-06-10T06:31:08;24.7;41.9
9666;DHT22;4871;52.004;5.924;2023-06-10T06:32:00;24.8;41.5
9666;DHT22;4871;52.004;5.924;2023-06-10T06:33:07;24.8;41.4
9666;DHT22;4871;52.004;5.924;2023-06-10T06:34:00;24.8;41.2
9666;DHT22;4871;52.004;5.924;2023-06-10T06:35:08;24.9;41.6
9666;DHT22;4871;52.004;5.924;2023-06-10T06:36:00;25.0;41.4
9666;DHT22;4871;52.004;5.924;2023-06-10T06:37:07;25.0;41.8
9666;DHT22;4871;52.004;5.924;2023-06-10T06:38:00;25.0;41.5
9666;DHT22;4871;52.004;5.924;2023-06-10T06:39:06;25.1;41.3
9666;DHT22;4871;52.004;5.924;2023-06-10T06:40:00;25.2;41.2
9666;DHT22;4871;52.004;5.924;2023-06-10T06:41:03;25.3;40.9
9666;DHT22;4871;52.004;5.924;2023-06-10T06:42:06;25.3;40.7
9666;DHT22;4871;52.004;5.924;2023-06-10T06:43:00;25.3;40.7
9666;DHT22;4871;52.004;5.924;2023-06-10T06:44:00;25.4;40.7